Aérodrome :
LOGIN :

S'inscrire | Disclaimer

   EN    FR    IT 

 










Légende :    VFR   VFR Marginal   IFR   IFR Intensif   IFR Très Intensif
Visi : 
Plafond : 
>= 8 km
>= 3000ft
5 à 8 km
1000 à 3000 ft
1500m à 5 km
500 à 1000 ft
800 à 1500m
200 à 500 ft
< 800m
< 200 ft
Symboles :   Orages  Brouillard  Fortes neiges  Fortes précipitations  Vent > 20 kt
SIGMETs :   Divers  Orages  Givrage  Turbulence  Onde Orograph.  Cendres Volcan.







- Altitude de l'aérodrome : 645 ft
- Code IATA : DLE
- Voir les cartes d'approche


LFGJ - Dole Tavaux

DERNIER METAR :
  • 141700Z AUTO 06004KT 9999 OVC005 10/09 Q1026 BECMG 0400 FG VV///

METARs EXPIRÉS :
  • 141630Z AUTO 04005KT 9999 OVC006 10/09 Q1026 BECMG 0400 FG VV///
  • 141600Z AUTO VRB03KT 9999 OVC006 10/09 Q1027 BECMG 3000 BR
  • 141530Z AUTO 01003KT 5000 BR OVC007 10/10 Q1027 BECMG BKN012
  • 141500Z AUTO 02003KT 3600 BR OVC008 10/09 Q1027 BECMG 8000 NSW BKN012
  • 141430Z AUTO 36003KT 5000 BR OVC008 09/09 Q1027 BECMG BKN012
  • 141400Z AUTO VRB02KT 7000 OVC010 09/09 Q1027 TEMPO 4000 BR BKN003

TAF AMD TAF LFGJ
Valide du 14 à 16h jusqu'au 15 à 00h UTC


141627Z 1416/1424 VRB03KT 9000 BKN007
BECMG 1418/1420 0400 FG VV///
Pas de NOTAMs connus pour ce terrain.



MET'MAP, la Météo Aéronautique d'un coup d'oeil ! - Copyright ORBIFLY Décembre 2007 - Disclaimer

ORBIFLY MET'MAP TEAM :

Programmation & Développement : Alexandra Zaïnal
Conception & Développement : Baudouin d'Aumeries
Co-Programmation & Développement : Marc-Olivier Méhu
Soutien technique & logistique : Manuel Goepfert

Contact : metmap@orbifly.com




SOURCES & CREDITS :

   NOAA